Time;durP1;ratioP1;P1;durP2;ratioP2;P2;SDS_P1;SDS_P2;PMS_P1;PMS_P2;Temp;Humidity;BMP_temperature;BMP_pressure;BME280_temperature;BME280_humidity;BME280_pressure;Samples;Min_cycle;Max_cycle;Signal;HPM_P1;HPM_P2
2023/11/12 00:00:40;;;;;;;49.08;21.30;;;;;;;9.73;100.00;98057.16;1747949;82;21025;-65
2023/11/12 00:03:09;;;;;;;43.63;19.92;;;;;;;9.73;100.00;98051.69;1748225;82;21069;-65
2023/11/12 00:05:37;;;;;;;47.73;21.48;;;;;;;9.71;100.00;98054.67;1748140;82;21013;-66
2023/11/12 00:08:09;;;;;;;44.45;20.48;;;;;;;9.70;100.00;98034.42;1748187;82;21045;-64
2023/11/12 00:10:39;;;;;;;46.60;20.72;;;;;;;9.72;100.00;98034.99;1719190;82;21057;-66
2023/11/12 00:13:10;;;;;;;45.52;19.90;;;;;;;9.73;100.00;98031.18;1748096;82;21536;-65
2023/11/12 00:15:40;;;;;;;45.23;19.55;;;;;;;9.73;100.00;98025.17;1748259;82;21053;-66
2023/11/12 00:18:09;;;;;;;43.50;18.65;;;;;;;9.74;100.00;98026.00;1719218;82;21088;-63
2023/11/12 00:20:37;;;;;;;38.60;17.77;;;;;;;9.73;100.00;98019.70;1748138;82;20998;-65
2023/11/12 00:23:08;;;;;;;44.15;18.42;;;;;;;9.73;100.00;98015.60;1748421;82;21021;-63
2023/11/12 00:25:38;;;;;;;34.90;17.02;;;;;;;9.73;100.00;98012.87;1748411;82;21542;-65
2023/11/12 00:28:06;;;;;;;38.85;17.60;;;;;;;9.71;100.00;98005.45;1745308;82;21076;-64
2023/11/12 00:30:36;;;;;;;38.05;17.02;;;;;;;9.72;100.00;98002.19;1742331;82;21049;-65
2023/11/12 00:33:06;;;;;;;32.93;15.90;;;;;;;9.72;100.00;98003.02;1742417;82;21061;-64
2023/11/12 00:35:36;;;;;;;31.05;15.30;;;;;;;9.72;100.00;97997.55;1742441;82;21049;-64
2023/11/12 00:38:05;;;;;;;27.55;13.53;;;;;;;9.71;100.00;97995.89;1742346;82;21077;-63
2023/11/12 00:40:35;;;;;;;28.23;13.95;;;;;;;9.70;100.00;97992.86;1742630;82;21054;-64
2023/11/12 00:43:04;;;;;;;25.57;12.43;;;;;;;9.71;100.00;97991.79;1742312;82;21265;-63
2023/11/12 00:45:33;;;;;;;22.02;12.10;;;;;;;9.71;100.00;97982.22;1742465;82;21052;-64
2023/11/12 00:48:01;;;;;;;22.22;11.85;;;;;;;9.71;100.00;97983.58;1742375;82;21449;-65
2023/11/12 00:50:30;;;;;;;22.87;11.43;;;;;;;9.70;100.00;97974.27;1742365;82;21437;-64
2023/11/12 00:52:59;;;;;;;20.12;10.82;;;;;;;9.70;100.00;97970.99;1742575;82;21006;-65
2023/11/12 00:55:27;;;;;;;19.07;10.03;;;;;;;9.70;100.00;97968.26;1742350;82;21048;-65
2023/11/12 00:57:56;;;;;;;19.73;10.90;;;;;;;9.70;100.00;97975.63;1742384;82;21513;-66
2023/11/12 01:00:25;;;;;;;18.25;10.10;;;;;;;9.69;100.00;97965.23;1742565;82;21084;-65
2023/11/12 01:02:55;;;;;;;17.35;10.90;;;;;;;9.67;100.00;97961.92;1742538;82;21064;-64
2023/11/12 01:05:24;;;;;;;20.12;11.03;;;;;;;9.68;100.00;97962.76;1742371;82;21245;-66
2023/11/12 01:07:53;;;;;;;17.20;9.80;;;;;;;9.66;100.00;97960.27;1742502;82;21073;-63
2023/11/12 01:10:22;;;;;;;18.12;11.33;;;;;;;9.64;100.00;97954.77;1742392;82;21053;-66
2023/11/12 01:12:51;;;;;;;20.12;10.72;;;;;;;9.63;100.00;97947.64;1742320;82;21084;-64
2023/11/12 01:15:20;;;;;;;18.07;10.63;;;;;;;9.61;100.00;97941.06;1742387;82;21457;-63
2023/11/12 01:17:49;;;;;;;15.72;10.13;;;;;;;9.61;100.00;97939.70;1742443;82;21462;-63
2023/11/12 01:20:18;;;;;;;17.20;10.13;;;;;;;9.61;100.00;97929.30;1742367;82;21022;-64
2023/11/12 01:22:47;;;;;;;16.00;10.53;;;;;;;9.59;100.00;97932.28;1742292;82;21453;-65
2023/11/12 01:25:16;;;;;;;16.90;10.45;;;;;;;9.60;100.00;97927.65;1742419;82;21100;-64
2023/11/12 01:27:44;;;;;;;16.27;10.08;;;;;;;9.58;100.00;97923.80;1743738;82;21088;-65
2023/11/12 01:30:15;;;;;;;16.87;10.63;;;;;;;9.58;100.00;97927.08;1719159;82;21042;-65
2023/11/12 01:32:44;;;;;;;19.87;11.55;;;;;;;9.58;100.00;97919.70;1748305;82;21020;-64
2023/11/12 01:35:14;;;;;;;16.70;10.48;;;;;;;9.57;100.00;97915.31;1748322;82;21053;-63
2023/11/12 01:37:44;;;;;;;19.30;11.75;;;;;;;9.57;100.00;97909.84;1748168;82;21025;-64
2023/11/12 01:40:15;;;;;;;21.70;12.13;;;;;;;9.54;100.00;97911.17;1748254;82;21013;-63
2023/11/12 01:42:44;;;;;;;19.32;11.57;;;;;;;9.54;100.00;97908.45;1748293;82;21056;-64
2023/11/12 01:45:14;;;;;;;18.50;12.00;;;;;;;9.53;100.00;97904.59;1748233;82;21069;-63
2023/11/12 01:47:46;;;;;;;20.32;12.47;;;;;;;9.52;100.00;97903.77;1748163;82;21049;-64
2023/11/12 01:50:15;;;;;;;19.70;12.43;;;;;;;9.52;100.00;97901.58;1748331;82;21033;-64
2023/11/12 01:52:44;;;;;;;18.02;11.65;;;;;;;9.51;100.00;97896.65;1748310;82;21005;-64
2023/11/12 01:55:13;;;;;;;18.00;11.68;;;;;;;9.53;100.00;97899.13;1748295;82;21033;-63
2023/11/12 01:57:42;;;;;;;18.48;11.83;;;;;;;9.53;100.00;97893.66;1748348;82;21026;-63
2023/11/12 02:00:15;;;;;;;20.95;12.53;;;;;;;9.50;100.00;97891.44;1748101;82;21017;-65
2023/11/12 02:02:43;;;;;;;21.62;11.85;;;;;;;9.46;100.00;97890.28;1748209;82;21053;-65
2023/11/12 02:05:12;;;;;;;18.60;11.60;;;;;;;9.43;100.00;97886.69;1719333;82;21029;-64
2023/11/12 02:07:45;;;;;;;17.17;10.90;;;;;;;9.43;100.00;97891.62;1719011;82;21523;-64
2023/11/12 02:10:16;;;;;;;20.32;11.08;;;;;;;9.40;100.00;97878.99;1748379;82;21075;-63
2023/11/12 02:12:47;;;;;;;18.60;12.53;;;;;;;9.39;100.00;97881.44;1748156;82;21060;-65
2023/11/12 02:15:17;;;;;;;19.37;11.70;;;;;;;9.36;100.00;97877.84;1748385;82;21064;-64
2023/11/12 02:17:47;;;;;;;14.78;10.13;;;;;;;9.34;100.00;97869.90;1748212;82;21001;-63
2023/11/12 02:20:16;;;;;;;12.90;8.40;;;;;;;9.34;100.00;97874.00;1748412;82;21021;-63
2023/11/12 02:22:44;;;;;;;11.15;7.67;;;;;;;9.34;100.00;97868.53;1748038;82;21104;-65
2023/11/12 02:25:13;;;;;;;11.40;7.90;;;;;;;9.32;100.00;97867.13;1748372;82;21013;-63
2023/11/12 02:27:46;;;;;;;9.95;6.72;;;;;;;9.30;100.00;97867.38;1747790;82;21021;-64
2023/11/12 02:30:15;;;;;;;9.50;6.70;;;;;;;9.30;100.00;97875.58;1742448;82;21097;-64
2023/11/12 02:32:45;;;;;;;10.40;7.05;;;;;;;9.29;100.00;97873.09;1742548;82;21092;-65
2023/11/12 02:35:14;;;;;;;10.48;7.03;;;;;;;9.29;100.00;97867.63;1742462;82;21041;-62
2023/11/12 02:37:44;;;;;;;9.60;6.47;;;;;;;9.29;100.00;97867.09;1742256;82;21061;-64
2023/11/12 02:40:17;;;;;;;12.05;7.17;;;;;;;9.30;100.00;97866.55;1742534;82;21046;-64
2023/11/12 02:42:48;;;;;;;11.10;6.58;;;;;;;9.30;100.00;97868.75;1742324;82;21100;-63
2023/11/12 02:45:18;;;;;;;8.48;5.70;;;;;;;9.31;100.00;97869.58;1742410;82;21057;-64
2023/11/12 02:47:48;;;;;;;8.23;5.17;;;;;;;9.31;100.00;97872.31;1742407;82;21085;-64
2023/11/12 02:50:21;;;;;;;5.50;4.20;;;;;;;9.28;100.00;97866.80;1742372;82;21108;-66
2023/11/12 02:52:50;;;;;;;6.03;4.45;;;;;;;9.27;100.00;97873.34;1742370;82;21022;-64
2023/11/12 02:55:19;;;;;;;4.10;3.42;;;;;;;9.27;100.00;97871.16;1742422;82;21045;-64
2023/11/12 02:57:48;;;;;;;6.65;3.90;;;;;;;9.24;100.00;97860.20;1742340;82;21073;-64
2023/11/12 03:00:17;;;;;;;3.87;3.00;;;;;;;9.23;100.00;97860.45;1742458;82;20989;-64
2023/11/12 03:02:46;;;;;;;4.22;3.20;;;;;;;9.20;100.00;97861.77;1742490;82;21073;-63
2023/11/12 03:05:15;;;;;;;5.33;3.25;;;;;;;9.20;100.00;97866.70;1742431;82;21088;-63
2023/11/12 03:07:44;;;;;;;5.20;3.58;;;;;;;9.21;100.00;97860.16;1742617;82;21045;-63
2023/11/12 03:10:13;;;;;;;3.60;2.90;;;;;;;9.20;100.00;97869.43;1742285;82;21010;-65
2023/11/12 03:12:42;;;;;;;4.58;3.60;;;;;;;9.16;100.00;97864.18;1721785;82;21002;-63
2023/11/12 03:15:11;;;;;;;4.83;3.37;;;;;;;9.15;100.00;97866.63;1742724;82;21073;-64
2023/11/12 03:17:40;;;;;;;5.75;3.75;;;;;;;9.12;100.00;97865.76;1722077;82;21101;-65
2023/11/12 03:20:13;;;;;;;5.08;3.00;;;;;;;9.14;100.00;97859.50;1742408;82;21521;-65
2023/11/12 03:22:43;;;;;;;4.33;2.70;;;;;;;9.11;100.00;97861.38;1742558;82;21049;-65
2023/11/12 03:25:11;;;;;;;3.47;2.83;;;;;;;9.08;100.00;97857.75;1742609;82;21017;-64
2023/11/12 03:27:40;;;;;;;4.62;2.80;;;;;;;9.09;100.00;97858.03;1742392;82;21013;-63
2023/11/12 03:30:12;;;;;;;3.17;2.45;;;;;;;9.11;100.00;97860.01;1742312;82;21077;-64
2023/11/12 03:32:41;;;;;;;2.80;2.22;;;;;;;9.09;100.00;97856.67;1742753;82;21074;-65
2023/11/12 03:35:11;;;;;;;4.17;3.15;;;;;;;9.07;100.00;97850.63;1742424;82;21026;-62
2023/11/12 03:37:39;;;;;;;3.37;2.12;;;;;;;9.06;100.00;97850.34;1742422;82;21070;-64
2023/11/12 03:40:09;;;;;;;2.37;2.00;;;;;;;9.05;100.00;97850.59;1720016;82;21037;-64
2023/11/12 03:42:38;;;;;;;2.58;1.95;;;;;;;9.02;100.00;97855.19;1742683;82;21017;-64
2023/11/12 03:45:08;;;;;;;2.20;1.75;;;;;;;8.99;100.00;97851.05;1742834;82;21009;-64
2023/11/12 03:47:37;;;;;;;2.05;1.85;;;;;;;9.01;100.00;97856.27;1742409;82;21057;-64
2023/11/12 03:50:07;;;;;;;2.17;1.72;;;;;;;8.99;100.00;97852.95;1742634;82;21021;-65
2023/11/12 03:52:36;;;;;;;2.02;1.52;;;;;;;8.95;100.00;97855.36;1742592;82;21061;-65
2023/11/12 03:55:06;;;;;;;1.75;1.40;;;;;;;8.93;100.00;97850.69;1742590;82;21029;-65
2023/11/12 03:57:35;;;;;;;2.70;1.55;;;;;;;8.91;100.00;97850.11;1742403;82;21064;-64
2023/11/12 04:00:07;;;;;;;1.40;1.30;;;;;;;8.92;100.00;97850.40;1742681;82;21005;-64
2023/11/12 04:02:38;;;;;;;1.50;1.07;;;;;;;8.91;100.00;97846.02;1742246;82;21073;-66
2023/11/12 04:05:07;;;;;;;1.82;1.30;;;;;;;8.90;100.00;97849.28;1742350;82;21084;-65
2023/11/12 04:07:36;;;;;;;1.62;1.10;;;;;;;8.88;100.00;97856.07;1742512;82;21058;-63
2023/11/12 04:10:06;;;;;;;2.35;1.40;;;;;;;8.86;100.00;97852.77;1742618;82;21045;-64
2023/11/12 04:12:35;;;;;;;1.25;1.15;;;;;;;8.81;100.00;97848.59;1742585;82;21065;-64
2023/11/12 04:15:07;;;;;;;1.60;1.20;;;;;;;8.80;100.00;97851.03;1721837;82;21105;-63
2023/11/12 04:17:36;;;;;;;1.60;1.15;;;;;;;8.78;100.00;97850.45;1742464;82;21064;-64
2023/11/12 04:20:08;;;;;;;1.90;1.17;;;;;;;8.77;100.00;97850.98;1742249;82;21485;-65
2023/11/12 04:22:37;;;;;;;1.40;1.30;;;;;;;8.74;100.00;97847.39;1742343;82;21002;-66
2023/11/12 04:25:07;;;;;;;1.10;1.00;;;;;;;8.76;100.00;97846.61;1742397;82;21053;-63
2023/11/12 04:27:37;;;;;;;1.70;1.20;;;;;;;8.74;100.00;97850.13;1742388;82;21480;-64
2023/11/12 04:30:07;;;;;;;2.30;1.27;;;;;;;8.72;100.00;97847.35;1747108;82;21048;-63
2023/11/12 04:32:38;;;;;;;1.07;0.98;;;;;;;8.70;100.00;97839.95;1748415;82;21019;-66
2023/11/12 04:35:10;;;;;;;1.10;1.00;;;;;;;8.71;100.00;97845.16;1748082;82;21301;-62
2023/11/12 04:37:39;;;;;;;1.00;0.90;;;;;;;8.69;100.00;97844.58;1748097;82;21104;-64
2023/11/12 04:40:13;;;;;;;1.70;1.32;;;;;;;8.65;100.00;97848.05;1719012;82;21037;-64
2023/11/12 04:42:41;;;;;;;1.47;0.95;;;;;;;8.62;100.00;97848.55;1748106;82;21073;-65
2023/11/12 04:45:10;;;;;;;1.30;1.10;;;;;;;8.61;100.00;97846.36;1748360;82;21033;-64
2023/11/12 04:47:40;;;;;;;1.07;0.85;;;;;;;8.61;100.00;97846.89;1748195;82;20986;-65
2023/11/12 04:50:10;;;;;;;1.20;1.10;;;;;;;8.60;100.00;97850.70;1719350;82;21072;-64
2023/11/12 04:52:39;;;;;;;0.82;0.82;;;;;;;8.58;100.00;97855.86;1747929;82;21465;-66
2023/11/12 04:55:08;;;;;;;0.72;0.72;;;;;;;8.55;100.00;97853.63;1748061;82;21017;-64
2023/11/12 04:57:37;;;;;;;1.30;1.10;;;;;;;8.52;100.00;97856.03;1719021;82;21041;-63
2023/11/12 05:00:08;;;;;;;1.30;1.00;;;;;;;8.47;100.00;97859.49;1748166;82;21045;-64
2023/11/12 05:02:40;;;;;;;1.32;0.98;;;;;;;8.44;100.00;97859.95;1748349;82;20997;-63
2023/11/12 05:05:11;;;;;;;2.45;1.40;;;;;;;8.43;100.00;97865.13;1748163;82;21443;-63
2023/11/12 05:07:40;;;;;;;1.40;1.00;;;;;;;8.40;100.00;97868.88;1748270;82;21027;-64
2023/11/12 05:10:11;;;;;;;2.27;1.30;;;;;;;8.37;100.00;97867.47;1748071;82;21064;-64
2023/11/12 05:12:39;;;;;;;1.50;1.00;;;;;;;8.35;100.00;97865.52;1748273;82;21025;-65
2023/11/12 05:15:09;;;;;;;2.70;1.30;;;;;;;8.34;100.00;97869.33;1748380;82;21001;-64
2023/11/12 05:17:37;;;;;;;2.20;1.15;;;;;;;8.34;100.00;97873.95;1748214;82;21021;-63
2023/11/12 05:20:08;;;;;;;1.42;1.00;;;;;;;8.34;100.00;97873.95;1748342;82;21036;-65
2023/11/12 05:22:37;;;;;;;2.47;1.20;;;;;;;8.31;100.00;97877.97;1748401;82;21052;-68
2023/11/12 05:25:09;;;;;;;1.32;0.62;;;;;;;8.27;100.00;97875.44;1748175;82;21523;-63
2023/11/12 05:27:38;;;;;;;1.17;0.80;;;;;;;8.25;100.00;97888.49;1748261;82;21545;-64
2023/11/12 05:30:08;;;;;;;1.45;0.85;;;;;;;8.24;100.00;97877.29;1744144;81;21068;-64
2023/11/12 05:32:37;;;;;;;1.35;1.20;;;;;;;8.26;100.00;97880.06;1742392;82;21457;-64
2023/11/12 05:35:07;;;;;;;0.75;0.60;;;;;;;8.27;100.00;97890.44;1721549;82;21037;-64
2023/11/12 05:37:35;;;;;;;2.45;0.72;;;;;;;8.25;100.00;97886.59;1742363;82;21547;-63
2023/11/12 05:40:05;;;;;;;2.47;1.10;;;;;;;8.24;100.00;97892.30;1742353;82;20985;-63
2023/11/12 05:42:34;;;;;;;0.80;0.80;;;;;;;8.23;100.00;97887.91;1742709;82;21010;-64
2023/11/12 05:45:04;;;;;;;1.20;1.10;;;;;;;8.23;100.00;97894.19;1742506;82;21041;-64
2023/11/12 05:47:34;;;;;;;2.12;1.80;;;;;;;8.24;100.00;97886.84;1742416;82;21005;-64
2023/11/12 05:50:04;;;;;;;2.50;1.85;;;;;;;8.25;100.00;97903.49;1742447;82;21515;-63
2023/11/12 05:52:33;;;;;;;3.05;1.80;;;;;;;8.24;100.00;97901.30;1742435;82;21097;-64
2023/11/12 05:55:03;;;;;;;1.37;1.10;;;;;;;8.24;100.00;97901.84;1742347;82;21069;-64
2023/11/12 05:57:32;;;;;;;2.47;1.40;;;;;;;8.24;100.00;97903.20;1742256;82;21073;-63
2023/11/12 06:00:00;;;;;;;1.30;1.17;;;;;;;8.24;100.00;97907.30;1742422;82;21120;-64
2023/11/12 06:02:32;;;;;;;1.82;1.30;;;;;;;8.25;100.00;97910.31;1741127;82;21543;-63
2023/11/12 06:05:03;;;;;;;1.42;1.27;;;;;;;8.23;100.00;97916.02;1742397;82;21073;-65
2023/11/12 06:07:34;;;;;;;1.75;1.25;;;;;;;8.22;100.00;97925.80;1742291;82;21057;-64
2023/11/12 06:10:03;;;;;;;1.60;1.10;;;;;;;8.20;100.00;97926.05;1742317;82;21539;-64
2023/11/12 06:12:32;;;;;;;1.30;1.20;;;;;;;8.18;100.00;97912.36;1742466;82;21460;-63
2023/11/12 06:15:01;;;;;;;1.85;1.20;;;;;;;8.17;100.00;97921.08;1742344;82;21033;-63
2023/11/12 06:17:31;;;;;;;1.15;1.00;;;;;;;8.16;100.00;97925.41;1742542;82;21017;-64
2023/11/12 06:20:00;;;;;;;1.20;1.02;;;;;;;8.14;100.00;97917.47;1742404;82;21073;-65
2023/11/12 06:22:29;;;;;;;1.10;1.00;;;;;;;8.15;100.00;97922.39;1742276;82;21010;-62
2023/11/12 06:24:57;;;;;;;1.17;1.02;;;;;;;8.15;100.00;97919.66;1721637;82;21073;-64
2023/11/12 06:27:27;;;;;;;3.83;1.92;;;;;;;8.15;100.00;97927.84;1742264;82;21160;-64
2023/11/12 06:29:55;;;;;;;1.30;1.00;;;;;;;8.16;100.00;97924.05;1716712;83;21166;-64
2023/11/12 06:32:24;;;;;;;2.00;1.32;;;;;;;8.17;100.00;97924.34;1712136;83;21069;-65
2023/11/12 06:34:53;;;;;;;1.95;1.65;;;;;;;8.18;100.00;97931.45;1730320;82;21018;-64
2023/11/12 06:37:21;;;;;;;2.22;1.60;;;;;;;8.18;100.00;97929.55;1730421;82;21117;-64
2023/11/12 06:39:50;;;;;;;2.37;1.85;;;;;;;8.18;100.00;97936.91;1730209;83;21026;-62
2023/11/12 06:42:20;;;;;;;3.27;1.85;;;;;;;8.17;100.00;97939.34;1730233;83;21062;-63
2023/11/12 06:44:49;;;;;;;3.45;1.90;;;;;;;8.17;100.00;97940.70;1730314;83;21038;-65
2023/11/12 06:47:18;;;;;;;3.00;1.52;;;;;;;8.15;100.00;97940.12;1730289;83;21037;-64
2023/11/12 06:49:58;;;;;;;1.60;1.25;;;;;;;8.15;100.00;97945.03;1730210;82;21035;-64
2023/11/12 06:52:34;;;;;;;1.40;1.30;;;;;;;8.16;100.00;97949.95;1730681;83;20983;-65
2023/11/12 06:55:04;;;;;;;2.72;1.57;;;;;;;8.17;100.00;97950.25;1712049;83;21082;-64
2023/11/12 06:57:33;;;;;;;2.12;1.50;;;;;;;8.16;100.00;97950.78;1730606;83;21066;-65
2023/11/12 07:00:04;;;;;;;3.20;1.70;;;;;;;8.15;100.00;97949.66;1730373;82;21093;-64
2023/11/12 07:02:33;;;;;;;3.45;1.75;;;;;;;8.14;100.00;97950.73;1730422;83;21458;-65
2023/11/12 07:05:04;;;;;;;2.83;1.47;;;;;;;8.16;100.00;97952.68;1730403;83;20994;-64
2023/11/12 07:07:33;;;;;;;1.87;1.60;;;;;;;8.14;100.00;97950.73;1730618;82;21018;-63
2023/11/12 07:10:01;;;;;;;2.95;1.90;;;;;;;8.12;100.00;97952.88;1730465;83;21040;-64
2023/11/12 07:12:31;;;;;;;2.22;1.70;;;;;;;8.12;100.00;97961.05;1730440;83;21038;-65
2023/11/12 07:15:00;;;;;;;2.42;1.72;;;;;;;8.12;100.00;97956.97;1730238;83;20982;-64
2023/11/12 07:17:30;;;;;;;2.42;1.62;;;;;;;8.12;100.00;97958.33;1730513;83;21002;-64
2023/11/12 07:20:02;;;;;;;5.83;1.62;;;;;;;8.11;100.00;97960.77;1730321;83;21022;-64
2023/11/12 07:22:32;;;;;;;2.92;1.87;;;;;;;8.11;100.00;97962.12;1730251;83;21520;-65
2023/11/12 07:25:00;;;;;;;1.95;1.72;;;;;;;8.10;100.00;97956.38;1730295;83;20991;-64
2023/11/12 07:27:31;;;;;;;2.05;1.50;;;;;;;8.09;100.00;97962.91;1730245;82;21065;-65
2023/11/12 07:30:00;;;;;;;2.55;2.02;;;;;;;8.07;100.00;97967.23;1737057;82;21041;-65
2023/11/12 07:32:30;;;;;;;3.52;1.90;;;;;;;8.07;100.00;97975.41;1748480;82;21063;-64
2023/11/12 07:35:00;;;;;;;2.60;1.90;;;;;;;8.07;100.00;97969.12;1748054;82;21539;-64
2023/11/12 07:37:28;;;;;;;2.80;2.35;;;;;;;8.07;100.00;97970.49;1748312;82;21029;-65
2023/11/12 07:39:57;;;;;;;2.60;2.00;;;;;;;8.07;100.00;97981.41;1748339;82;21068;-64
2023/11/12 07:42:28;;;;;;;4.22;2.35;;;;;;;8.07;100.00;97980.04;1695637;82;21096;-65
2023/11/12 07:44:57;;;;;;;3.65;2.33;;;;;;;8.07;100.00;97980.87;1748062;82;21227;-64
2023/11/12 07:47:27;;;;;;;3.85;2.72;;;;;;;8.07;100.00;97977.31;1746145;82;21006;-64
2023/11/12 07:49:56;;;;;;;2.75;2.50;;;;;;;8.08;100.00;97987.15;1719267;82;21073;-65
2023/11/12 07:52:25;;;;;;;5.30;4.20;;;;;;;8.05;100.00;97987.63;1748291;82;21334;-65
2023/11/12 07:54:54;;;;;;;2.80;2.42;;;;;;;8.04;100.00;97995.52;1748215;82;21060;-64
2023/11/12 07:57:22;;;;;;;3.95;2.67;;;;;;;8.00;100.00;97994.34;1748625;82;21017;-64
2023/11/12 07:59:52;;;;;;;3.10;2.02;;;;;;;8.00;100.00;98001.98;1748316;82;21037;-65
2023/11/12 08:02:22;;;;;;;3.02;2.40;;;;;;;7.97;100.00;98001.64;1719508;82;21061;-65
2023/11/12 08:04:51;;;;;;;3.95;2.45;;;;;;;7.99;100.00;98004.42;1748032;82;21045;-65
2023/11/12 08:07:20;;;;;;;2.95;2.42;;;;;;;7.98;100.00;98000.56;1748116;82;21033;-64
2023/11/12 08:09:49;;;;;;;4.35;3.20;;;;;;;7.98;100.00;98000.56;1748367;82;21001;-66
2023/11/12 08:12:19;;;;;;;3.72;2.47;;;;;;;7.98;100.00;98004.66;1719186;82;20997;-65
2023/11/12 08:14:48;;;;;;;4.17;2.90;;;;;;;7.98;100.00;98008.75;1748328;82;21108;-63
2023/11/12 08:17:17;;;;;;;5.17;3.08;;;;;;;7.98;100.00;98015.03;1748203;82;20985;-64
2023/11/12 08:19:46;;;;;;;2.72;2.30;;;;;;;7.98;100.00;98023.21;1748357;82;21515;-65
2023/11/12 08:22:15;;;;;;;5.12;3.25;;;;;;;7.98;100.00;98019.12;1748206;82;21049;-64
2023/11/12 08:24:43;;;;;;;3.80;2.80;;;;;;;7.98;100.00;98021.02;1748412;82;21029;-63
2023/11/12 08:27:13;;;;;;;3.17;2.42;;;;;;;7.98;100.00;98026.47;1748043;82;21467;-65
2023/11/12 08:29:41;;;;;;;3.45;2.33;;;;;;;8.00;100.00;98026.52;1747987;82;21081;-64
2023/11/12 08:32:10;;;;;;;3.30;2.22;;;;;;;7.98;100.00;98026.47;1748152;82;21209;-64
2023/11/12 08:34:40;;;;;;;2.42;1.80;;;;;;;7.99;100.00;98028.13;1719269;82;21550;-64
2023/11/12 08:37:10;;;;;;;5.83;2.30;;;;;;;7.99;100.00;98034.95;1748385;82;21057;-65
2023/11/12 08:39:38;;;;;;;3.62;2.27;;;;;;;8.02;100.00;98031.73;1748175;82;21040;-64
2023/11/12 08:42:07;;;;;;;4.80;2.20;;;;;;;8.04;100.00;98038.61;1719184;82;21053;-66
2023/11/12 08:44:36;;;;;;;4.67;2.50;;;;;;;8.05;100.00;98036.18;1748374;82;20982;-65
2023/11/12 08:47:06;;;;;;;3.50;2.22;;;;;;;8.06;100.00;98038.38;1748377;82;20986;-65
2023/11/12 08:49:34;;;;;;;5.72;2.65;;;;;;;8.09;100.00;98041.98;1748177;82;21061;-66
2023/11/12 08:52:04;;;;;;;2.65;2.10;;;;;;;8.12;100.00;98033.32;1748401;82;21028;-64
2023/11/12 08:54:34;;;;;;;2.35;1.85;;;;;;;8.12;100.00;98042.87;1747825;81;21047;-65
2023/11/12 08:57:04;;;;;;;3.22;2.10;;;;;;;8.12;100.00;98043.70;1685756;84;21136;-67
2023/11/12 08:59:35;;;;;;;2.70;2.02;;;;;;;8.12;100.00;98046.95;1683911;84;21074;-66
2023/11/12 09:02:08;;;;;;;2.55;2.05;;;;;;;8.13;100.00;98045.89;1684117;85;21073;-68
2023/11/12 09:04:38;;;;;;;2.85;2.12;;;;;;;8.15;100.00;98040.48;1684083;85;21089;-66
2023/11/12 09:07:07;;;;;;;3.25;2.17;;;;;;;8.14;100.00;98040.20;1712348;84;21028;-67
2023/11/12 09:09:36;;;;;;;2.12;1.80;;;;;;;8.13;100.00;98043.16;1683891;85;21143;-65
2023/11/12 09:12:05;;;;;;;3.80;1.90;;;;;;;8.12;100.00;98051.88;1713673;82;21060;-67
2023/11/12 09:14:34;;;;;;;3.05;1.80;;;;;;;8.11;100.00;98054.84;1678506;85;21016;-67
2023/11/12 09:17:03;;;;;;;3.60;2.17;;;;;;;8.09;100.00;98051.53;1678205;85;21087;-65
2023/11/12 09:19:31;;;;;;;4.40;2.90;;;;;;;8.10;100.00;98054.55;1678405;85;21083;-66
2023/11/12 09:22:01;;;;;;;4.05;2.10;;;;;;;8.11;100.00;98053.48;1677832;85;21111;-66
2023/11/12 09:24:30;;;;;;;2.92;2.08;;;;;;;8.13;100.00;98055.44;1678287;85;21020;-65
2023/11/12 09:26:59;;;;;;;3.12;2.30;;;;;;;8.16;100.00;98057.69;1678254;85;21047;-67
2023/11/12 09:29:28;;;;;;;2.70;2.20;;;;;;;8.20;100.00;98058.86;1679167;85;21105;-68
2023/11/12 09:31:57;;;;;;;3.12;2.10;;;;;;;8.24;100.00;98069.59;1657046;85;21093;-67
2023/11/12 09:34:26;;;;;;;2.85;2.30;;;;;;;8.25;100.00;98067.16;1683569;85;21298;-65
2023/11/12 09:36:56;;;;;;;2.87;2.00;;;;;;;8.24;100.00;98066.86;1682446;85;21285;-64
2023/11/12 09:39:24;;;;;;;2.87;2.02;;;;;;;8.24;100.00;98070.95;1712406;84;21058;-65
2023/11/12 09:41:54;;;;;;;4.08;2.15;;;;;;;8.25;100.00;98072.61;1712527;84;21077;-66
2023/11/12 09:44:22;;;;;;;2.58;1.90;;;;;;;8.25;100.00;98066.62;1712303;84;21081;-66
2023/11/12 09:46:56;;;;;;;2.37;1.95;;;;;;;8.21;100.00;98065.44;1712287;84;21038;-63
2023/11/12 09:49:25;;;;;;;3.92;2.20;;;;;;;8.19;100.00;98071.67;1712080;84;21108;-66
2023/11/12 09:51:53;;;;;;;1.72;1.62;;;;;;;8.16;100.00;98073.52;1712411;84;21049;-65
2023/11/12 09:54:23;;;;;;;4.03;2.37;;;;;;;8.15;100.00;98069.66;1712372;84;21033;-66
2023/11/12 09:56:53;;;;;;;3.87;2.10;;;;;;;8.15;100.00;98075.11;1712354;84;21077;-64
2023/11/12 09:59:24;;;;;;;4.25;2.17;;;;;;;8.16;100.00;98074.05;1709214;84;21046;-65
2023/11/12 10:01:54;;;;;;;2.22;1.80;;;;;;;8.17;100.00;98078.44;1684895;84;21038;-65
2023/11/12 10:04:22;;;;;;;4.35;2.65;;;;;;;8.17;100.00;98082.52;1699490;84;21024;-64
2023/11/12 10:06:52;;;;;;;3.35;2.45;;;;;;;8.18;100.00;98088.27;1702207;83;21557;-65
2023/11/12 10:09:28;;;;;;;3.55;1.85;;;;;;;8.19;100.00;98087.20;1715354;84;21594;-65
2023/11/12 10:12:04;;;;;;;2.40;1.85;;;;;;;8.20;100.00;98081.51;1728799;83;21055;-66
2023/11/12 10:14:33;;;;;;;2.60;2.00;;;;;;;8.23;100.00;98082.93;1715432;84;21498;-65
2023/11/12 10:17:10;;;;;;;2.67;2.10;;;;;;;8.24;100.00;98090.05;1728892;83;21047;-66
2023/11/12 10:19:38;;;;;;;;;;;;;;;8.22;100.00;98094.91;1717973;83;21467;-67
2023/11/12 10:22:07;;;;;;;2.90;2.15;;;;;;;8.18;100.00;98088.27;1728679;83;20199;-69
2023/11/12 10:24:43;;;;;;;2.87;1.90;;;;;;;8.16;100.00;98093.97;1688230;84;21539;-66
2023/11/12 10:27:14;;;;;;;2.90;2.20;;;;;;;8.15;100.00;98102.39;1728713;83;21076;-66
2023/11/12 10:29:44;;;;;;;4.15;2.10;;;;;;;8.16;100.00;98095.33;1689845;84;21522;-65
2023/11/12 10:32:25;;;;;;;2.98;2.37;;;;;;;8.16;100.00;98105.41;1721985;83;21148;-65
2023/11/12 10:34:55;;;;;;;2.42;1.82;;;;;;;8.15;100.00;98107.31;1717570;83;21094;-66
2023/11/12 10:37:24;;;;;;;3.58;2.00;;;;;;;8.12;100.00;98103.70;1701996;84;21076;-65
2023/11/12 10:39:53;;;;;;;3.65;2.25;;;;;;;8.11;100.00;98108.02;1767814;81;21021;-66
2023/11/12 10:42:26;;;;;;;3.10;2.30;;;;;;;8.10;100.00;98107.73;1767768;81;21040;-64
2023/11/12 10:44:58;;;;;;;3.27;1.98;;;;;;;8.12;100.00;98106.95;1702101;84;21016;-65
2023/11/12 10:47:32;;;;;;;4.85;2.85;;;;;;;8.17;100.00;98117.98;1702198;84;21008;-66
2023/11/12 10:49:59;;;;;;;3.47;2.67;;;;;;;8.19;100.00;98117.20;1767920;81;21021;-65
2023/11/12 10:52:28;;;;;;;4.97;3.45;;;;;;;8.21;100.00;98123.25;1702061;84;21092;-66
2023/11/12 10:55:00;;;;;;;4.08;2.30;;;;;;;8.20;100.00;98119.70;1660305;84;21097;-66
2023/11/12 10:57:30;;;;;;;5.72;2.55;;;;;;;8.17;100.00;98118.81;1683038;84;21072;-68
2023/11/12 11:00:00;;;;;;;4.03;3.05;;;;;;;8.18;100.00;98131.91;1702304;84;21274;-68
2023/11/12 11:02:32;;;;;;;3.62;2.80;;;;;;;8.15;100.00;98116.02;1767884;81;21024;-66
2023/11/12 11:05:00;;;;;;;2.85;2.30;;;;;;;8.10;100.00;98129.01;1744855;81;21050;-68
2023/11/12 11:07:29;;;;;;;3.70;2.35;;;;;;;8.07;100.00;98139.03;1737631;82;21085;-67
2023/11/12 11:09:58;;;;;;;4.25;2.75;;;;;;;8.03;100.00;98145.20;1717088;82;21497;-70
2023/11/12 11:12:26;;;;;;;3.90;2.60;;;;;;;8.03;100.00;98145.20;1737475;82;21576;-65
2023/11/12 11:14:55;;;;;;;2.87;2.27;;;;;;;8.02;100.00;98144.90;1737525;82;20985;-66
2023/11/12 11:17:37;;;;;;;3.45;2.50;;;;;;;8.02;100.00;98148.98;1737459;82;21014;-64
2023/11/12 11:20:11;;;;;;;2.45;2.02;;;;;;;8.01;100.00;98145.43;1716849;82;21073;-65
2023/11/12 11:22:36;;;;;;;3.08;2.10;;;;;;;8.04;100.00;98153.67;1716869;82;21022;-65
2023/11/12 11:25:25;;;;;;;4.12;2.58;;;;;;;8.06;100.00;98158.36;1717121;82;21033;-67
2023/11/12 11:28:22;;;;;;;3.58;2.37;;;;;;;8.08;100.00;98156.22;1717297;82;21022;-65
2023/11/12 11:31:11;;;;;;;3.45;2.52;;;;;;;8.08;100.00;98163.87;1738295;82;21053;-64
2023/11/12 11:33:50;;;;;;;4.50;2.90;;;;;;;8.11;100.00;98167.48;1742402;82;21021;-66
2023/11/12 11:36:22;;;;;;;3.02;1.85;;;;;;;8.10;100.00;98177.27;1742434;82;20994;-66
2023/11/12 11:39:12;;;;;;;2.60;1.70;;;;;;;8.07;100.00;98179.94;1742224;82;21049;-65
2023/11/12 11:41:58;;;;;;;2.37;1.55;;;;;;;8.07;100.00;98191.38;1742291;82;21017;-67